Time;durP1;ratioP1;P1;durP2;ratioP2;P2;SDS_P1;SDS_P2;PMS_P1;PMS_P2;Temp;Humidity;BMP_temperature;BMP_pressure;BME280_temperature;BME280_humidity;BME280_pressure;Samples;Min_cycle;Max_cycle;Signal;HPM_P1;HPM_P2
2021/10/30 00:00:59;;;;;;;;;;;18.50;91.50;;;;;;4956464;28;20421;-74
2021/10/30 00:03:26;;;;;;;;;;;18.40;92.00;;;;;;4955664;28;19922;-76
2021/10/30 00:05:53;;;;;;;;;;;18.40;91.70;;;;;;4956020;28;19915;-76
2021/10/30 00:08:20;;;;;;;;;;;18.40;91.60;;;;;;4955910;29;20372;-74
2021/10/30 00:10:47;;;;;;;;;;;18.40;91.90;;;;;;4956004;29;20257;-75
2021/10/30 00:13:13;;;;;;;;;;;18.60;91.90;;;;;;4955774;28;19914;-76
2021/10/30 00:15:40;;;;;;;;;;;18.70;91.00;;;;;;4954338;29;20365;-75
2021/10/30 00:18:07;;;;;;;;;;;18.80;91.20;;;;;;4955408;29;19911;-74
2021/10/30 00:20:34;;;;;;;;;;;18.90;90.30;;;;;;4955956;28;19938;-76
2021/10/30 00:23:01;;;;;;;;;;;18.90;90.50;;;;;;4955874;29;19910;-77
2021/10/30 00:25:27;;;;;;;;;;;19.00;90.50;;;;;;4955682;28;20009;-73
2021/10/30 00:27:55;;;;;;;;;;;19.10;89.90;;;;;;4955372;28;19950;-74
2021/10/30 00:30:21;;;;;;;;;;;19.10;90.50;;;;;;4955333;28;19910;-75
2021/10/30 00:32:48;;;;;;;;;;;19.00;90.00;;;;;;4954655;28;19911;-78
2021/10/30 00:35:15;;;;;;;;;;;18.80;90.10;;;;;;4955439;29;20372;-75
2021/10/30 00:37:41;;;;;;;;;;;18.60;90.20;;;;;;4955597;29;19917;-77
2021/10/30 00:40:11;;;;;;;;;;;18.60;90.50;;;;;;4955155;29;19946;-76
2021/10/30 00:42:38;;;;;;;;;;;18.50;90.20;;;;;;4955286;28;19914;-78
2021/10/30 00:45:06;;;;;;;;;;;18.40;90.40;;;;;;4955366;29;19910;-71
2021/10/30 00:47:33;;;;;;;;;;;18.40;90.50;;;;;;4955370;29;20380;-74
2021/10/30 00:50:00;;;;;;;;;;;18.40;90.70;;;;;;4955085;29;19911;-73
2021/10/30 00:52:27;;;;;;;;;;;18.50;90.40;;;;;;4937973;29;20281;-74
2021/10/30 00:54:55;;;;;;;;;;;18.60;89.70;;;;;;4955272;29;19918;-72
2021/10/30 00:57:23;;;;;;;;;;;18.60;89.80;;;;;;4954964;29;19951;-75
2021/10/30 00:59:50;;;;;;;;;;;18.50;89.80;;;;;;4955183;29;19918;-75
2021/10/30 01:02:16;;;;;;;;;;;18.40;89.40;;;;;;4954865;28;19918;-75
2021/10/30 01:04:43;;;;;;;;;;;18.20;90.30;;;;;;4953922;29;19926;-74
2021/10/30 01:07:10;;;;;;;;;;;18.30;90.30;;;;;;4955063;29;19917;-73
2021/10/30 01:09:37;;;;;;;;;;;18.30;90.10;;;;;;4953550;29;19911;-70
2021/10/30 01:12:04;;;;;;;;;;;18.30;90.40;;;;;;4954673;29;19910;-73
2021/10/30 01:14:31;;;;;;;;;;;18.40;90.60;;;;;;4954743;28;19942;-71
2021/10/30 01:16:59;;;;;;;;;;;18.50;90.00;;;;;;4954609;28;19910;-72
2021/10/30 01:19:26;;;;;;;;;;;18.70;89.10;;;;;;4954850;28;20432;-72
2021/10/30 01:21:53;;;;;;;;;;;18.90;88.90;;;;;;4954698;28;19952;-76
2021/10/30 01:24:21;;;;;;;;;;;19.00;89.80;;;;;;4954512;29;19910;-71
2021/10/30 01:26:48;;;;;;;;;;;19.10;89.00;;;;;;4954423;28;19990;-71
2021/10/30 01:29:14;;;;;;;;;;;19.30;87.50;;;;;;4954628;28;20322;-74
2021/10/30 01:31:41;;;;;;;;;;;19.10;87.50;;;;;;4954460;28;19997;-71
2021/10/30 01:34:09;;;;;;;;;;;19.20;88.30;;;;;;4954349;28;20285;-75
2021/10/30 01:36:36;;;;;;;;;;;19.20;88.40;;;;;;4954686;28;19973;-74
2021/10/30 01:39:04;;;;;;;;;;;19.20;88.00;;;;;;4954634;28;19921;-74
2021/10/30 01:41:31;;;;;;;;;;;19.10;87.70;;;;;;4954154;28;20278;-70
2021/10/30 01:43:58;;;;;;;;;;;19.00;88.20;;;;;;4953834;28;19918;-71
2021/10/30 01:46:25;;;;;;;;;;;19.10;88.10;;;;;;4954281;29;19924;-72
2021/10/30 01:48:53;;;;;;;;;;;19.20;88.00;;;;;;4954554;29;19942;-74
2021/10/30 01:51:20;;;;;;;;;;;19.20;86.60;;;;;;4954279;28;20016;-71
2021/10/30 01:53:47;;;;;;;;;;;19.30;86.60;;;;;;4954207;28;19973;-72
2021/10/30 01:56:14;;;;;;;;;;;19.30;86.90;;;;;;4954031;28;19964;-75
2021/10/30 01:58:40;;;;;;;;;;;19.30;86.70;;;;;;4954095;28;19921;-71
2021/10/30 02:01:08;;;;;;;;;;;19.10;86.80;;;;;;4953871;29;20104;-73
2021/10/30 02:03:35;;;;;;;;;;;19.00;88.20;;;;;;4953825;29;20328;-71
2021/10/30 02:06:03;;;;;;;;;;;18.90;87.60;;;;;;4953739;29;19918;-75
2021/10/30 02:08:30;;;;;;;;;;;18.70;88.90;;;;;;4953243;29;19911;-73
2021/10/30 02:10:57;;;;;;;;;;;18.60;90.10;;;;;;4954111;29;19915;-71
2021/10/30 02:13:23;;;;;;;;;;;18.50;89.40;;;;;;4954232;28;19915;-72
2021/10/30 02:15:51;;;;;;;;;;;18.70;89.90;;;;;;4953990;28;19942;-73
2021/10/30 02:18:17;;;;;;;;;;;18.90;90.00;;;;;;4953880;28;19911;-73
2021/10/30 02:20:45;;;;;;;;;;;19.10;89.60;;;;;;4954004;28;19925;-72
2021/10/30 02:23:11;;;;;;;;;;;19.30;88.00;;;;;;4954084;29;19911;-72
2021/10/30 02:25:38;;;;;;;;;;;19.10;87.40;;;;;;4953849;29;20242;-71
2021/10/30 02:28:05;;;;;;;;;;;18.80;87.60;;;;;;4953776;29;19916;-70
2021/10/30 02:30:31;;;;;;;;;;;18.70;88.50;;;;;;4953804;28;19914;-70
2021/10/30 02:33:00;;;;;;;;;;;18.70;90.20;;;;;;4954293;28;19910;-71
2021/10/30 02:35:27;;;;;;;;;;;18.70;89.70;;;;;;4954056;28;19918;-70
2021/10/30 02:37:53;;;;;;;;;;;18.80;90.00;;;;;;4953634;28;19978;-71
2021/10/30 02:40:20;;;;;;;;;;;18.80;88.00;;;;;;4953208;29;19919;-73
2021/10/30 02:42:47;;;;;;;;;;;18.70;88.50;;;;;;4953200;28;19914;-72
2021/10/30 02:45:14;;;;;;;;;;;18.70;89.70;;;;;;4953756;29;19954;-72
2021/10/30 02:47:40;;;;;;;;;;;18.80;88.40;;;;;;4953806;29;19911;-70
2021/10/30 02:50:07;;;;;;;;;;;19.00;88.90;;;;;;4953784;29;19959;-73
2021/10/30 02:52:34;;;;;;;;;;;18.90;88.00;;;;;;4953737;28;20065;-72
2021/10/30 02:55:01;;;;;;;;;;;19.00;88.80;;;;;;4953949;29;19910;-71
2021/10/30 02:57:27;;;;;;;;;;;19.20;88.00;;;;;;4955904;28;20334;-70
2021/10/30 02:59:54;;;;;;;;;;;19.00;86.30;;;;;;4957269;29;19910;-72
2021/10/30 03:02:21;;;;;;;;;;;18.70;86.70;;;;;;4956322;28;20385;-73
2021/10/30 03:04:48;;;;;;;;;;;18.80;87.80;;;;;;4957063;28;19922;-71
2021/10/30 03:07:15;;;;;;;;;;;18.90;87.80;;;;;;4956909;29;20049;-70
2021/10/30 03:09:47;;;;;;;;;;;19.00;88.60;;;;;;4956817;28;19917;-70
2021/10/30 03:12:14;;;;;;;;;;;19.10;87.40;;;;;;4956566;29;20384;-70
2021/10/30 03:14:41;;;;;;;;;;;19.10;86.30;;;;;;4956849;28;19911;-70
2021/10/30 03:17:07;;;;;;;;;;;19.00;86.30;;;;;;4956982;28;19918;-70
2021/10/30 03:19:34;;;;;;;;;;;18.90;85.50;;;;;;4956945;29;19911;-71
2021/10/30 03:22:01;;;;;;;;;;;18.50;86.80;;;;;;4956485;28;19973;-70
2021/10/30 03:24:27;;;;;;;;;;;18.40;88.10;;;;;;4956548;29;19977;-70
2021/10/30 03:26:54;;;;;;;;;;;18.30;88.20;;;;;;4956405;28;19921;-72
2021/10/30 03:29:20;;;;;;;;;;;18.50;88.60;;;;;;4956802;28;19917;-70
2021/10/30 03:31:47;;;;;;;;;;;18.50;89.20;;;;;;4956551;28;19957;-71
2021/10/30 03:34:14;;;;;;;;;;;18.60;88.30;;;;;;4956314;29;19910;-70
2021/10/30 03:36:40;;;;;;;;;;;18.70;88.40;;;;;;4956591;28;19953;-72
2021/10/30 03:39:07;;;;;;;;;;;18.90;88.40;;;;;;4956794;28;19911;-70
2021/10/30 03:41:33;;;;;;;;;;;19.10;87.90;;;;;;4956337;28;19918;-73
2021/10/30 03:44:00;;;;;;;;;;;18.90;87.00;;;;;;4956484;28;19910;-70
2021/10/30 03:46:27;;;;;;;;;;;18.50;88.40;;;;;;4956485;29;19910;-74
2021/10/30 03:48:54;;;;;;;;;;;18.60;89.30;;;;;;4956288;29;20366;-73
2021/10/30 03:51:20;;;;;;;;;;;18.60;88.50;;;;;;4956108;28;19911;-73
2021/10/30 03:53:47;;;;;;;;;;;18.80;87.60;;;;;;4956116;28;19978;-73
2021/10/30 03:56:13;;;;;;;;;;;18.70;87.20;;;;;;4956094;29;19910;-73
2021/10/30 03:58:40;;;;;;;;;;;18.80;88.10;;;;;;4956260;29;19973;-73
2021/10/30 04:01:07;;;;;;;;;;;18.90;86.90;;;;;;4956121;29;19918;-74
2021/10/30 04:03:33;;;;;;;;;;;18.90;87.10;;;;;;4955699;28;19926;-73
2021/10/30 04:06:00;;;;;;;;;;;18.70;87.90;;;;;;4955897;28;20006;-73
2021/10/30 04:08:27;;;;;;;;;;;18.40;87.90;;;;;;4955788;28;20352;-74
2021/10/30 04:10:53;;;;;;;;;;;18.10;89.00;;;;;;4955945;28;20269;-74
2021/10/30 04:13:20;;;;;;;;;;;18.20;89.40;;;;;;4955997;29;19910;-71
2021/10/30 04:15:47;;;;;;;;;;;17.90;89.90;;;;;;4955979;29;19910;-74
2021/10/30 04:18:13;;;;;;;;;;;17.90;90.60;;;;;;4955963;29;19922;-74
2021/10/30 04:20:40;;;;;;;;;;;18.00;90.00;;;;;;4955800;29;19919;-74
2021/10/30 04:23:07;;;;;;;;;;;18.10;90.50;;;;;;4955656;29;20281;-74
2021/10/30 04:25:34;;;;;;;;;;;18.30;90.30;;;;;;4955702;29;19921;-73
2021/10/30 04:28:00;;;;;;;;;;;18.30;90.00;;;;;;4954179;29;20365;-73
2021/10/30 04:30:27;;;;;;;;;;;18.20;90.20;;;;;;4955687;29;19911;-73
2021/10/30 04:32:54;;;;;;;;;;;18.20;90.20;;;;;;4955619;29;19910;-73
2021/10/30 04:35:22;;;;;;;;;;;18.10;90.00;;;;;;4955586;29;20017;-74
2021/10/30 04:37:49;;;;;;;;;;;18.00;90.00;;;;;;4955489;29;20277;-75
2021/10/30 04:40:16;;;;;;;;;;;18.20;90.10;;;;;;4955056;28;19918;-73
2021/10/30 04:42:42;;;;;;;;;;;18.40;89.90;;;;;;4955279;28;20275;-74
2021/10/30 04:45:09;;;;;;;;;;;18.30;89.50;;;;;;4955248;29;20266;-74
2021/10/30 04:47:36;;;;;;;;;;;18.20;90.40;;;;;;4955242;28;20301;-73
2021/10/30 04:50:02;;;;;;;;;;;18.00;90.20;;;;;;4954928;29;20366;-74
2021/10/30 04:52:29;;;;;;;;;;;18.00;90.50;;;;;;4954943;29;19911;-74
2021/10/30 04:54:56;;;;;;;;;;;18.00;90.10;;;;;;4954832;28;19910;-71
2021/10/30 04:57:22;;;;;;;;;;;18.00;90.20;;;;;;4955396;28;19921;-73
2021/10/30 04:59:49;;;;;;;;;;;18.10;90.00;;;;;;4955306;28;19911;-73
2021/10/30 05:02:16;;;;;;;;;;;18.10;90.00;;;;;;4954913;28;19918;-74
2021/10/30 05:04:42;;;;;;;;;;;17.90;89.50;;;;;;4954873;28;19997;-75
2021/10/30 05:07:09;;;;;;;;;;;17.80;90.20;;;;;;4955054;29;19918;-74
2021/10/30 05:09:36;;;;;;;;;;;17.60;90.60;;;;;;4954699;28;19914;-73
2021/10/30 05:12:02;;;;;;;;;;;17.70;90.40;;;;;;4954528;28;20418;-76
2021/10/30 05:14:29;;;;;;;;;;;17.70;90.40;;;;;;4954946;28;20001;-75
2021/10/30 05:16:56;;;;;;;;;;;17.60;91.00;;;;;;4955168;28;20381;-75
2021/10/30 05:19:22;;;;;;;;;;;17.70;91.00;;;;;;4954251;28;19917;-74
2021/10/30 05:21:49;;;;;;;;;;;17.40;90.90;;;;;;4954722;28;19997;-74
2021/10/30 05:24:16;;;;;;;;;;;17.40;90.80;;;;;;4954745;29;19917;-76
2021/10/30 05:26:42;;;;;;;;;;;17.30;91.40;;;;;;4954683;29;20365;-75
2021/10/30 05:29:09;;;;;;;;;;;17.30;91.10;;;;;;4954839;28;19914;-76
2021/10/30 05:31:36;;;;;;;;;;;17.30;91.10;;;;;;4954610;28;19910;-76
2021/10/30 05:34:03;;;;;;;;;;;17.40;91.50;;;;;;4954453;29;19918;-75
2021/10/30 05:36:32;;;;;;;;;;;17.20;91.70;;;;;;4954576;29;19934;-76
2021/10/30 05:38:59;;;;;;;;;;;17.20;91.90;;;;;;4954652;29;20353;-76
2021/10/30 05:41:26;;;;;;;;;;;17.10;92.70;;;;;;4937005;29;20009;-75
2021/10/30 05:43:53;;;;;;;;;;;17.10;92.10;;;;;;4954536;29;20115;-75
2021/10/30 05:46:19;;;;;;;;;;;17.10;92.70;;;;;;4954107;28;19958;-76
2021/10/30 05:48:46;;;;;;;;;;;17.10;92.50;;;;;;4954526;28;19911;-76
2021/10/30 05:51:13;;;;;;;;;;;17.10;92.60;;;;;;4954395;28;19922;-75
2021/10/30 05:53:40;;;;;;;;;;;17.10;92.20;;;;;;4954052;28;19917;-76
2021/10/30 05:56:06;;;;;;;;;;;17.20;92.40;;;;;;4954074;28;20313;-75
2021/10/30 05:58:33;;;;;;;;;;;17.20;92.10;;;;;;4954331;28;20317;-76
2021/10/30 06:01:00;;;;;;;;;;;17.10;92.40;;;;;;4953841;29;19914;-76
2021/10/30 06:03:26;;;;;;;;;;;17.00;92.10;;;;;;4954254;28;19922;-75
2021/10/30 06:05:53;;;;;;;;;;;16.90;92.50;;;;;;4954255;28;20379;-76
2021/10/30 06:08:20;;;;;;;;;;;16.90;92.70;;;;;;4954264;28;19910;-76
2021/10/30 06:10:46;;;;;;;;;;;16.80;93.10;;;;;;4954017;29;19933;-76
2021/10/30 06:13:13;;;;;;;;;;;16.80;92.80;;;;;;4954069;29;19914;-76
2021/10/30 06:15:40;;;;;;;;;;;16.70;93.20;;;;;;4954202;29;19917;-75
2021/10/30 06:18:07;;;;;;;;;;;16.70;93.30;;;;;;4954113;28;20266;-76
2021/10/30 06:20:33;;;;;;;;;;;16.80;93.40;;;;;;4954138;28;19926;-76
2021/10/30 06:23:02;;;;;;;;;;;16.70;93.40;;;;;;4954141;28;19915;-76
2021/10/30 06:25:29;;;;;;;;;;;16.70;93.20;;;;;;4954070;28;19911;-75
2021/10/30 06:27:55;;;;;;;;;;;16.70;93.30;;;;;;4954094;29;20480;-76
2021/10/30 06:30:22;;;;;;;;;;;16.70;93.40;;;;;;4953781;28;19957;-75
2021/10/30 06:32:48;;;;;;;;;;;16.60;93.10;;;;;;4957072;28;20312;-75
2021/10/30 06:35:16;;;;;;;;;;;16.60;93.00;;;;;;4957710;28;19962;-75
2021/10/30 06:37:43;;;;;;;;;;;16.50;92.80;;;;;;4957771;29;19914;-73
2021/10/30 06:40:11;;;;;;;;;;;16.50;93.00;;;;;;4957430;28;19910;-75
2021/10/30 06:42:38;;;;;;;;;;;16.60;92.60;;;;;;4957568;29;19914;-75
2021/10/30 06:45:06;;;;;;;;;;;16.60;92.60;;;;;;4957737;29;19914;-74
2021/10/30 06:47:33;;;;;;;;;;;16.60;92.50;;;;;;4957514;29;19950;-75
2021/10/30 06:50:00;;;;;;;;;;;16.60;92.60;;;;;;4956569;29;19914;-74
2021/10/30 06:52:37;;;;;;;;;;;16.50;92.80;;;;;;4957537;29;19918;-74
2021/10/30 06:55:08;;;;;;;;;;;16.50;93.00;;;;;;4957175;29;19946;-76
2021/10/30 06:57:35;;;;;;;;;;;16.30;93.10;;;;;;4957437;28;19910;-76
2021/10/30 07:00:05;;;;;;;;;;;16.30;93.50;;;;;;4957165;28;19910;-72
2021/10/30 07:02:32;;;;;;;;;;;16.20;94.00;;;;;;4956759;28;19918;-73
2021/10/30 07:04:59;;;;;;;;;;;16.30;94.40;;;;;;4956601;29;20406;-74
2021/10/30 07:07:26;;;;;;;;;;;16.50;94.40;;;;;;4957236;29;20001;-76
2021/10/30 07:09:59;;;;;;;;;;;16.50;93.90;;;;;;4956812;29;19969;-74
2021/10/30 07:12:30;;;;;;;;;;;16.60;93.20;;;;;;4957483;29;19911;-73
2021/10/30 07:14:59;;;;;;;;;;;16.40;92.90;;;;;;4957238;28;19910;-72
2021/10/30 07:17:26;;;;;;;;;;;16.30;92.90;;;;;;4957028;28;19918;-74
2021/10/30 07:19:54;;;;;;;;;;;16.30;92.80;;;;;;4956922;28;19914;-72
2021/10/30 07:22:21;;;;;;;;;;;16.20;92.20;;;;;;4956542;28;19918;-72
2021/10/30 07:24:47;;;;;;;;;;;16.20;92.20;;;;;;4956963;28;19958;-71
2021/10/30 07:27:17;;;;;;;;;;;16.30;92.40;;;;;;4956775;28;20284;-73
2021/10/30 07:29:48;;;;;;;;;;;16.30;92.40;;;;;;4956900;29;19911;-70
2021/10/30 07:32:16;;;;;;;;;;;16.20;92.70;;;;;;4956236;29;19915;-73
2021/10/30 07:34:43;;;;;;;;;;;16.20;93.10;;;;;;4956715;28;19914;-73
2021/10/30 07:37:10;;;;;;;;;;;16.20;93.20;;;;;;4956672;29;19910;-74
2021/10/30 07:39:36;;;;;;;;;;;16.20;93.30;;;;;;4956347;28;19910;-74
2021/10/30 07:42:04;;;;;;;;;;;16.20;93.70;;;;;;4955486;28;19982;-73
2021/10/30 07:44:30;;;;;;;;;;;16.20;94.00;;;;;;4956391;29;19917;-73
2021/10/30 07:46:57;;;;;;;;;;;16.20;94.30;;;;;;4956442;29;20401;-74
2021/10/30 07:49:24;;;;;;;;;;;16.40;94.10;;;;;;4956524;29;19918;-75
2021/10/30 07:51:50;;;;;;;;;;;16.40;94.10;;;;;;4956499;28;19946;-73
2021/10/30 07:54:17;;;;;;;;;;;16.20;93.80;;;;;;4955905;29;20644;-73
2021/10/30 07:56:44;;;;;;;;;;;16.30;93.60;;;;;;4956112;28;20007;-74
2021/10/30 07:59:11;;;;;;;;;;;16.20;93.10;;;;;;4956160;29;19915;-73
2021/10/30 08:01:37;;;;;;;;;;;16.10;93.00;;;;;;4955917;29;19919;-74
2021/10/30 08:04:04;;;;;;;;;;;16.20;92.90;;;;;;4955883;28;19922;-74
2021/10/30 08:06:31;;;;;;;;;;;16.10;92.90;;;;;;4956081;28;20001;-73
2021/10/30 08:08:58;;;;;;;;;;;16.20;92.70;;;;;;4956101;28;19974;-73
2021/10/30 08:11:25;;;;;;;;;;;16.20;92.80;;;;;;4956078;28;19910;-71
2021/10/30 08:13:51;;;;;;;;;;;16.20;92.60;;;;;;4938843;29;20357;-73
2021/10/30 08:16:18;;;;;;;;;;;16.20;92.70;;;;;;4955691;29;20194;-74
2021/10/30 08:18:45;;;;;;;;;;;16.10;92.80;;;;;;4955730;29;19910;-71
2021/10/30 08:21:12;;;;;;;;;;;16.10;93.10;;;;;;4955475;29;19918;-71
2021/10/30 08:23:39;;;;;;;;;;;16.10;93.30;;;;;;4955240;29;19930;-73
2021/10/30 08:26:06;;;;;;;;;;;16.10;93.40;;;;;;4955570;28;19953;-74
2021/10/30 08:28:32;;;;;;;;;;;16.20;93.30;;;;;;4955812;28;19910;-73
2021/10/30 08:30:59;;;;;;;;;;;16.20;93.20;;;;;;4964573;28;20002;-73
2021/10/30 08:33:26;;;;;;;;;;;16.20;93.50;;;;;;4972613;28;19918;-74
2021/10/30 08:35:52;;;;;;;;;;;16.10;93.40;;;;;;4968619;28;20292;-74
2021/10/30 08:38:19;;;;;;;;;;;16.10;93.60;;;;;;4974836;28;20317;-73
2021/10/30 08:40:46;;;;;;;;;;;16.10;93.80;;;;;;4974548;28;19914;-74
2021/10/30 08:43:20;;;;;;;;;;;16.10;93.30;;;;;;4974419;28;20377;-74
2021/10/30 08:45:48;;;;;;;;;;;16.10;92.90;;;;;;4974770;28;19910;-75
2021/10/30 08:48:18;;;;;;;;;;;16.10;93.40;;;;;;4974586;28;19910;-74
2021/10/30 08:50:44;;;;;;;;;;;16.10;92.90;;;;;;4974051;28;19920;-74
2021/10/30 08:53:11;;;;;;;;;;;16.10;92.80;;;;;;4974420;28;19997;-75
2021/10/30 08:55:38;;;;;;;;;;;16.10;92.90;;;;;;4973597;28;19918;-75
2021/10/30 08:58:08;;;;;;;;;;;16.10;92.80;;;;;;4974282;28;19942;-75
2021/10/30 09:00:40;;;;;;;;;;;16.10;93.00;;;;;;4974514;28;19914;-75
2021/10/30 09:03:06;;;;;;;;;;;16.10;93.40;;;;;;4974375;28;20459;-73
2021/10/30 09:05:33;;;;;;;;;;;16.20;93.40;;;;;;4973930;28;19914;-74
2021/10/30 09:08:01;;;;;;;;;;;16.20;93.60;;;;;;4973916;28;19910;-74
2021/10/30 09:10:32;;;;;;;;;;;16.30;93.50;;;;;;4974155;28;19977;-74
2021/10/30 09:13:00;;;;;;;;;;;16.30;93.40;;;;;;4974155;28;20008;-73
2021/10/30 09:15:31;;;;;;;;;;;16.30;94.00;;;;;;4974137;28;19914;-74
2021/10/30 09:17:59;;;;;;;;;;;16.30;94.10;;;;;;4973734;28;20401;-71
2021/10/30 09:20:33;;;;;;;;;;;16.30;93.60;;;;;;4973616;28;19917;-74
2021/10/30 09:23:00;;;;;;;;;;;16.30;94.10;;;;;;4973864;28;19914;-74
2021/10/30 09:25:26;;;;;;;;;;;16.20;93.80;;;;;;4973989;28;19949;-75
2021/10/30 09:27:55;;;;;;;;;;;16.20;94.30;;;;;;4956767;28;19965;-74
2021/10/30 09:30:26;;;;;;;;;;;16.20;94.20;;;;;;4973800;28;19910;-73
2021/10/30 09:32:58;;;;;;;;;;;16.20;93.90;;;;;;4974023;28;20369;-75
2021/10/30 09:35:29;;;;;;;;;;;16.20;93.90;;;;;;4973314;28;20339;-74
2021/10/30 09:37:56;;;;;;;;;;;16.20;94.00;;;;;;4973798;28;19917;-74
2021/10/30 09:40:24;;;;;;;;;;;16.30;94.00;;;;;;4973739;28;20385;-74
2021/10/30 09:42:52;;;;;;;;;;;16.30;93.60;;;;;;4973917;28;19950;-74
2021/10/30 09:45:19;;;;;;;;;;;16.30;93.60;;;;;;4973788;28;19954;-75
2021/10/30 09:47:57;;;;;;;;;;;16.30;93.70;;;;;;4973704;28;20427;-74
2021/10/30 09:50:31;;;;;;;;;;;16.20;93.90;;;;;;4973201;28;19910;-74
2021/10/30 09:52:58;;;;;;;;;;;16.20;93.60;;;;;;4973730;28;19990;-73
2021/10/30 09:55:26;;;;;;;;;;;16.20;93.60;;;;;;4973368;28;19965;-74
2021/10/30 09:58:02;;;;;;;;;;;16.20;93.80;;;;;;4973359;28;19910;-73
2021/10/30 10:00:29;;;;;;;;;;;16.20;93.30;;;;;;4973459;28;19960;-74
2021/10/30 10:03:00;;;;;;;;;;;16.20;92.90;;;;;;4973347;28;20013;-73
2021/10/30 10:05:27;;;;;;;;;;;16.10;92.80;;;;;;4973986;28;20357;-72
2021/10/30 10:07:55;;;;;;;;;;;16.20;92.90;;;;;;4977611;28;19918;-74
2021/10/30 10:10:22;;;;;;;;;;;16.20;92.80;;;;;;4977167;28;19954;-74
2021/10/30 10:12:53;;;;;;;;;;;16.20;92.80;;;;;;4977621;28;19993;-72
2021/10/30 10:15:22;;;;;;;;;;;16.10;92.50;;;;;;4977640;28;20375;-73
2021/10/30 10:17:49;;;;;;;;;;;16.10;92.60;;;;;;4977593;28;19917;-72
2021/10/30 10:20:16;;;;;;;;;;;16.00;92.80;;;;;;4976522;28;20277;-73
2021/10/30 10:22:43;;;;;;;;;;;16.00;92.60;;;;;;4977453;28;20479;-72
2021/10/30 10:25:28;;;;;;;;;;;16.00;92.50;;;;;;4977243;28;19910;-72
2021/10/30 10:28:15;;;;;;;;;;;16.10;92.60;;;;;;4977238;28;20357;-71
2021/10/30 10:31:16;;;;;;;;;;;16.10;92.60;;;;;;4963528;28;19910;-71
2021/10/30 10:33:42;;;;;;;;;;;16.10;92.80;;;;;;4935203;28;19996;-73
2021/10/30 10:36:15;;;;;;;;;;;16.10;93.00;;;;;;4976297;28;19964;-73
2021/10/30 10:38:54;;;;;;;;;;;16.10;92.90;;;;;;4976943;28;19911;-74
2021/10/30 10:41:39;;;;;;;;;;;16.10;92.90;;;;;;4977237;28;19965;-75
2021/10/30 10:44:09;;;;;;;;;;;16.20;93.00;;;;;;4976596;28;19917;-75
2021/10/30 10:47:01;;;;;;;;;;;16.20;93.50;;;;;;4977118;28;19964;-75
2021/10/30 10:52:15;;;;;;;;;;;16.20;92.90;;;;;;4977084;28;19933;-75
2021/10/30 10:57:30;;;;;;;;;;;16.30;92.70;;;;;;4976926;28;19922;-76
2021/10/30 11:00:04;;;;;;;;;;;16.20;92.70;;;;;;4976618;28;19917;-76
2021/10/30 11:02:31;;;;;;;;;;;16.20;93.10;;;;;;4976389;28;19918;-76
2021/10/30 11:05:10;;;;;;;;;;;16.10;92.70;;;;;;4976381;28;19974;-76
2021/10/30 11:07:57;;;;;;;;;;;16.20;92.80;;;;;;4976183;28;19997;-75
2021/10/30 11:10:26;;;;;;;;;;;16.20;92.90;;;;;;4962935;28;19914;-74
2021/10/30 11:13:02;;;;;;;;;;;16.20;93.10;;;;;;4976362;28;19985;-73
2021/10/30 11:15:38;;;;;;;;;;;16.30;93.20;;;;;;4976409;28;19914;-76
2021/10/30 11:20:44;;;;;;;;;;;16.10;93.30;;;;;;4976236;28;20391;-74
2021/10/30 11:23:22;;;;;;;;;;;16.20;93.40;;;;;;4976167;28;19921;-72
2021/10/30 11:25:54;;;;;;;;;;;16.20;93.00;;;;;;4976121;28;19973;-74
2021/10/30 11:28:24;;;;;;;;;;;16.20;93.00;;;;;;4958641;28;20276;-71
2021/10/30 11:30:51;;;;;;;;;;;16.20;92.60;;;;;;4976141;28;19911;-74
2021/10/30 11:33:23;;;;;;;;;;;16.20;92.90;;;;;;4975752;28;19938;-75
2021/10/30 11:35:57;;;;;;;;;;;16.20;93.00;;;;;;4976064;28;20324;-76
2021/10/30 11:38:24;;;;;;;;;;;16.20;93.10;;;;;;4975913;28;19965;-76
2021/10/30 11:40:58;;;;;;;;;;;16.20;93.30;;;;;;4976038;28;19914;-76
2021/10/30 11:43:26;;;;;;;;;;;16.10;93.70;;;;;;4975948;28;19937;-77
2021/10/30 11:45:54;;;;;;;;;;;16.10;94.00;;;;;;4975760;28;19964;-75
2021/10/30 11:48:22;;;;;;;;;;;16.10;94.10;;;;;;4975262;28;19960;-76
2021/10/30 11:50:55;;;;;;;;;;;16.10;94.20;;;;;;4975759;28;20379;-76
2021/10/30 11:53:28;;;;;;;;;;;16.10;94.20;;;;;;4975598;28;19910;-75
2021/10/30 11:55:58;;;;;;;;;;;16.10;94.30;;;;;;4975994;28;19964;-75
2021/10/30 11:58:44;;;;;;;;;;;16.00;94.40;;;;;;4975662;28;19922;-74
2021/10/30 12:01:23;;;;;;;;;;;16.10;94.50;;;;;;4975586;28;20289;-76
2021/10/30 12:04:02;;;;;;;;;;;16.10;94.80;;;;;;4975004;28;19925;-76
2021/10/30 12:06:30;;;;;;;;;;;16.10;94.70;;;;;;4975525;28;19910;-76
2021/10/30 12:08:57;;;;;;;;;;;16.10;94.20;;;;;;4975772;28;20012;-75
2021/10/30 12:11:27;;;;;;;;;;;16.10;94.50;;;;;;4975339;28;19969;-75
2021/10/30 12:13:59;;;;;;;;;;;16.10;94.00;;;;;;4975260;28;19918;-75
2021/10/30 12:16:29;;;;;;;;;;;16.10;94.20;;;;;;4963446;28;19917;-73
2021/10/30 12:19:07;;;;;;;;;;;16.00;93.90;;;;;;4972440;28;19917;-75
2021/10/30 12:21:37;;;;;;;;;;;16.00;94.00;;;;;;4974117;28;19942;-74
2021/10/30 12:24:05;;;;;;;;;;;16.10;94.20;;;;;;4957516;28;20301;-75
2021/10/30 12:26:51;;;;;;;;;;;16.10;94.10;;;;;;4975215;28;20407;-72
2021/10/30 12:29:20;;;;;;;;;;;16.20;93.90;;;;;;4957847;28;19917;-69
2021/10/30 12:32:07;;;;;;;;;;;16.10;93.70;;;;;;4957622;28;20337;-71
2021/10/30 12:34:34;;;;;;;;;;;16.10;94.00;;;;;;4974983;28;20316;-72
2021/10/30 12:37:02;;;;;;;;;;;16.10;94.00;;;;;;4974939;28;20361;-70
2021/10/30 12:39:28;;;;;;;;;;;16.10;93.90;;;;;;4974756;28;20317;-69
2021/10/30 12:41:56;;;;;;;;;;;16.10;93.90;;;;;;4974768;28;19973;-72
2021/10/30 12:44:29;;;;;;;;;;;16.00;93.70;;;;;;4974957;28;19914;-73
2021/10/30 12:47:01;;;;;;;;;;;15.90;93.80;;;;;;4974681;28;19997;-74
2021/10/30 12:49:29;;;;;;;;;;;16.00;93.70;;;;;;4974685;28;19953;-70
2021/10/30 12:52:00;;;;;;;;;;;16.00;93.60;;;;;;4973707;28;20377;-70
2021/10/30 12:54:27;;;;;;;;;;;16.00;93.80;;;;;;4974754;28;20004;-71
2021/10/30 12:56:54;;;;;;;;;;;16.10;94.00;;;;;;4974593;28;19921;-70
2021/10/30 12:59:25;;;;;;;;;;;16.00;93.70;;;;;;4974486;28;19910;-71
2021/10/30 13:01:52;;;;;;;;;;;16.00;93.80;;;;;;4974255;28;19919;-73
2021/10/30 13:04:27;;;;;;;;;;;15.90;93.60;;;;;;4974258;28;19997;-69
2021/10/30 13:06:58;;;;;;;;;;;16.00;93.80;;;;;;4974369;28;20364;-71
2021/10/30 13:09:25;;;;;;;;;;;16.00;93.50;;;;;;4974536;28;19953;-71
2021/10/30 13:11:52;;;;;;;;;;;16.00;93.40;;;;;;4974166;28;19910;-70
2021/10/30 13:14:19;;;;;;;;;;;16.00;93.50;;;;;;4974168;28;19920;-70
2021/10/30 13:16:46;;;;;;;;;;;16.00;93.40;;;;;;4974360;28;19910;-70
2021/10/30 13:19:13;;;;;;;;;;;15.90;93.40;;;;;;4974267;28;20062;-69
2021/10/30 13:21:39;;;;;;;;;;;15.80;93.40;;;;;;4974194;28;19918;-69
2021/10/30 13:24:07;;;;;;;;;;;15.90;93.30;;;;;;4973945;28;19917;-70
2021/10/30 13:26:34;;;;;;;;;;;15.90;93.50;;;;;;4948962;28;19917;-70
2021/10/30 13:29:01;;;;;;;;;;;15.80;93.50;;;;;;4954260;29;19934;-71
2021/10/30 13:31:28;;;;;;;;;;;15.80;93.40;;;;;;4954925;29;19919;-72
2021/10/30 13:33:55;;;;;;;;;;;15.80;93.50;;;;;;4954142;29;19917;-70
2021/10/30 13:36:22;;;;;;;;;;;15.80;93.70;;;;;;4952685;28;19910;-70
2021/10/30 13:38:50;;;;;;;;;;;15.80;93.80;;;;;;4953710;29;19917;-73
2021/10/30 13:41:17;;;;;;;;;;;15.80;93.70;;;;;;4966963;28;19918;-72
2021/10/30 13:43:44;;;;;;;;;;;15.80;93.80;;;;;;4973729;28;19910;-70
2021/10/30 13:46:11;;;;;;;;;;;15.80;93.90;;;;;;4973452;28;19968;-70
2021/10/30 13:48:37;;;;;;;;;;;15.80;93.90;;;;;;4973885;28;19910;-73
2021/10/30 13:51:05;;;;;;;;;;;15.80;94.00;;;;;;4973716;28;19910;-70
2021/10/30 13:53:32;;;;;;;;;;;15.90;94.00;;;;;;4973548;28;19910;-71
2021/10/30 13:55:59;;;;;;;;;;;15.90;94.10;;;;;;4973588;28;20285;-70
2021/10/30 13:58:25;;;;;;;;;;;15.90;94.20;;;;;;4973919;28;19910;-71
2021/10/30 14:00:52;;;;;;;;;;;15.90;94.10;;;;;;4973443;28;20017;-70
2021/10/30 14:03:19;;;;;;;;;;;16.00;94.20;;;;;;4981527;28;20266;-71
2021/10/30 14:05:46;;;;;;;;;;;16.00;93.90;;;;;;4993201;28;19910;-70
2021/10/30 14:08:13;;;;;;;;;;;16.00;93.70;;;;;;4992854;28;20012;-71
2021/10/30 14:10:41;;;;;;;;;;;15.90;93.70;;;;;;4993055;28;19909;-71
2021/10/30 14:13:08;;;;;;;;;;;16.00;93.60;;;;;;4993126;28;20280;-70
2021/10/30 14:15:35;;;;;;;;;;;16.00;93.80;;;;;;4992945;28;19909;-71
2021/10/30 14:18:03;;;;;;;;;;;16.00;93.80;;;;;;4992852;28;19910;-71
2021/10/30 14:20:29;;;;;;;;;;;16.00;93.50;;;;;;4993011;28;19909;-71
2021/10/30 14:22:56;;;;;;;;;;;16.00;93.90;;;;;;4992695;28;19925;-69
2021/10/30 14:25:22;;;;;;;;;;;16.00;93.50;;;;;;4993047;28;20368;-70
2021/10/30 14:27:49;;;;;;;;;;;15.90;93.50;;;;;;4992895;28;19998;-72
2021/10/30 14:30:16;;;;;;;;;;;15.90;93.60;;;;;;4992657;28;19919;-73